Time;durP1;ratioP1;P1;durP2;ratioP2;P2;SDS_P1;SDS_P2;PMS_P1;PMS_P2;Temp;Humidity;BMP_temperature;BMP_pressure;BME280_temperature;BME280_humidity;BME280_pressure;Samples;Min_cycle;Max_cycle;Signal;HPM_P1;HPM_P2
2024/01/08 00:04:05;;;;;;;10.88;7.78;;;;;;;-1.98;100.00;103121.13;10220708;28;20054;-68
2024/01/08 00:09:03;;;;;;;8.48;7.35;;;;;;;-2.03;100.00;103123.50;10221077;28;20435;-70
2024/01/08 00:13:59;;;;;;;7.97;7.22;;;;;;;-1.95;100.00;103134.22;10222628;28;20057;-69
2024/01/08 00:18:56;;;;;;;7.68;6.95;;;;;;;-1.96;100.00;103134.38;10217920;28;20102;-69
2024/01/08 00:23:54;;;;;;;8.70;7.05;;;;;;;-2.18;100.00;103136.81;10218382;28;20046;-68
2024/01/08 00:28:50;;;;;;;8.20;7.20;;;;;;;-2.06;100.00;103136.44;10222399;28;20119;-69
2024/01/08 00:33:47;;;;;;;8.70;7.25;;;;;;;-2.12;100.00;103140.63;10216269;28;20046;-67
2024/01/08 00:38:44;;;;;;;8.00;7.30;;;;;;;-2.22;100.00;103140.84;10222878;28;20053;-66
2024/01/08 00:43:40;;;;;;;7.97;7.25;;;;;;;-2.33;100.00;103139.34;10222041;28;20045;-66
2024/01/08 00:48:37;;;;;;;8.88;6.78;;;;;;;-2.49;100.00;103143.94;10220480;28;20045;-67
2024/01/08 00:53:34;;;;;;;8.10;7.40;;;;;;;-2.50;100.00;103153.81;10215223;28;20070;-68
2024/01/08 00:58:30;;;;;;;8.63;7.30;;;;;;;-2.70;100.00;103157.88;10225941;28;20160;-69
2024/01/08 01:03:27;;;;;;;10.40;7.38;;;;;;;-2.59;100.00;103165.56;10224386;28;20688;-69
2024/01/08 01:08:23;;;;;;;8.20;7.18;;;;;;;-2.49;100.00;103166.19;10220839;28;20057;-68
2024/01/08 01:13:20;;;;;;;8.07;7.38;;;;;;;-2.59;100.00;103165.56;10210894;28;20038;-67
2024/01/08 01:18:17;;;;;;;12.93;8.25;;;;;;;-2.55;100.00;103172.25;10214863;28;20545;-67
2024/01/08 01:23:14;;;;;;;9.55;8.07;;;;;;;-2.43;100.00;103170.06;10224114;28;20072;-67
2024/01/08 01:28:11;;;;;;;8.13;7.30;;;;;;;-2.50;100.00;103169.91;10224462;28;20038;-69
2024/01/08 01:33:08;;;;;;;8.88;7.38;;;;;;;-2.60;100.00;103174.59;10227909;28;20068;-68
2024/01/08 01:38:04;;;;;;;8.75;7.95;;;;;;;-2.61;100.00;103173.75;10228197;28;20520;-69
2024/01/08 01:43:01;;;;;;;9.15;7.90;;;;;;;-2.63;100.00;103174.94;10222811;28;20053;-68
2024/01/08 01:47:57;;;;;;;8.80;7.82;;;;;;;-2.69;100.00;103171.09;10234794;28;20061;-68
2024/01/08 01:52:54;;;;;;;8.43;7.57;;;;;;;-2.57;100.00;103179.63;10220224;28;20149;-66
2024/01/08 01:57:51;;;;;;;8.20;7.50;;;;;;;-2.34;100.00;103179.75;10228397;28;20045;-68
2024/01/08 02:07:53;;;;;;;9.23;8.32;;;;;;;-2.67;100.00;103176.28;10421311;23;20123;-70
2024/01/08 02:12:50;;;;;;;8.82;7.85;;;;;;;-2.50;100.00;103169.91;10061492;28;20047;-71
2024/01/08 02:17:46;;;;;;;8.68;7.97;;;;;;;-2.36;100.00;103166.50;10066234;28;20055;-74
2024/01/08 02:22:43;;;;;;;8.98;8.18;;;;;;;-2.26;100.00;103170.84;10067709;28;20039;-74
2024/01/08 02:27:39;;;;;;;9.00;8.20;;;;;;;-2.50;100.00;103175.25;10063646;28;20407;-71
2024/01/08 02:32:36;;;;;;;8.63;7.82;;;;;;;-2.48;100.00;103175.06;10063542;28;20196;-71
2024/01/08 02:37:33;;;;;;;8.40;7.60;;;;;;;-2.41;100.00;103179.59;10065419;28;20043;-70
2024/01/08 02:42:30;;;;;;;9.57;7.90;;;;;;;-2.28;100.00;103178.22;10062705;28;20502;-75
2024/01/08 02:47:26;;;;;;;8.52;7.72;;;;;;;-2.10;100.00;103184.19;10052371;28;20055;-75
2024/01/08 02:52:23;;;;;;;8.05;7.35;;;;;;;-2.00;100.00;103179.44;10070679;28;20043;-72
2024/01/08 02:57:19;;;;;;;8.35;7.65;;;;;;;-1.92;100.00;103184.78;10072133;28;20419;-73
2024/01/08 03:02:16;;;;;;;8.98;7.07;;;;;;;-1.94;100.00;103186.81;10069659;28;20047;-74
2024/01/08 03:07:17;;;;;;;7.88;7.10;;;;;;;-2.04;100.00;103193.38;10064985;28;20621;-73
2024/01/08 03:12:14;;;;;;;7.30;6.77;;;;;;;-2.00;100.00;103190.19;10059962;28;20051;-73
2024/01/08 03:17:10;;;;;;;7.45;6.85;;;;;;;-1.94;100.00;103202.91;10058766;28;20051;-73
2024/01/08 03:22:07;;;;;;;7.30;6.70;;;;;;;-1.98;100.00;103206.09;10067183;28;20054;-72
2024/01/08 03:27:04;;;;;;;8.02;7.32;;;;;;;-2.15;100.00;103205.31;10062088;28;20047;-73
2024/01/08 03:32:02;;;;;;;7.82;7.15;;;;;;;-2.05;100.00;103208.63;10057509;28;20069;-73
2024/01/08 03:36:59;;;;;;;7.40;6.80;;;;;;;-2.05;100.00;103210.47;10054067;28;20070;-73
2024/01/08 03:41:56;;;;;;;7.82;7.22;;;;;;;-1.93;100.00;103215.31;10064939;28;20106;-73
2024/01/08 03:46:52;;;;;;;7.88;7.22;;;;;;;-2.08;100.00;103210.84;10061570;28;20058;-70
2024/01/08 03:51:50;;;;;;;8.10;7.30;;;;;;;-2.10;100.00;103213.69;10052993;28;20047;-72
2024/01/08 03:56:46;;;;;;;7.88;7.28;;;;;;;-2.16;100.00;103203.63;10057184;28;20059;-70
2024/01/08 04:01:44;;;;;;;8.20;7.40;;;;;;;-1.93;100.00;103215.31;10067273;28;20043;-73
2024/01/08 04:06:41;;;;;;;8.60;7.80;;;;;;;-1.86;100.00;103219.97;10061085;28;20051;-73
2024/01/08 04:11:38;;;;;;;8.98;8.18;;;;;;;-1.78;100.00;103211.91;10062848;28;20057;-71
2024/01/08 04:16:37;;;;;;;10.77;8.00;;;;;;;-1.84;100.00;103224.16;10064590;28;20098;-69
2024/01/08 04:21:33;;;;;;;9.82;8.85;;;;;;;-1.88;100.00;103221.97;10052524;28;20043;-70
2024/01/08 04:26:30;;;;;;;8.75;7.45;;;;;;;-1.93;100.00;103228.72;10053864;28;20047;-68
2024/01/08 04:31:28;;;;;;;9.63;8.48;;;;;;;-1.87;100.00;103229.03;10057907;28;20078;-70
2024/01/08 04:41:20;;;;;;;8.25;7.60;;;;;;;-1.74;100.00;103234.66;10156573;23;20049;-73
2024/01/08 04:46:17;;;;;;;8.32;7.60;;;;;;;-1.75;100.00;103249.09;10180216;28;20429;-72
2024/01/08 04:51:25;;;;;;;8.98;8.27;;;;;;;-1.67;100.00;103251.75;10180890;28;20144;-72
2024/01/08 04:56:24;;;;;;;8.27;7.55;;;;;;;-1.67;100.00;103259.81;10178980;28;20052;-73
2024/01/08 05:01:21;;;;;;;9.25;8.25;;;;;;;-1.58;100.00;103266.81;10175941;28;20046;-73
2024/01/08 05:06:18;;;;;;;9.23;8.43;;;;;;;-1.56;100.00;103280.88;10196404;28;20128;-72
2024/01/08 05:11:46;;;;;;;9.63;8.30;;;;;;;-1.58;100.00;103277.56;10177077;28;20046;-72
2024/01/08 05:16:53;;;;;;;9.60;8.80;;;;;;;-1.47;100.00;103284.34;10171673;28;20617;-71
2024/01/08 05:21:50;;;;;;;9.82;9.00;;;;;;;-1.82;100.00;103280.31;10173318;28;20346;-71
2024/01/08 05:26:47;;;;;;;8.82;7.97;;;;;;;-1.68;100.00;103287.63;10179491;28;20429;-73
2024/01/08 05:31:43;;;;;;;10.38;8.05;;;;;;;-1.56;100.00;103291.59;10184375;28;20052;-72
2024/01/08 05:36:41;;;;;;;9.35;8.00;;;;;;;-1.61;100.00;103287.78;10183024;28;20050;-71
2024/01/08 05:41:40;;;;;;;8.20;7.50;;;;;;;-1.52;100.00;103287.56;10159251;28;20446;-70
2024/01/08 05:46:43;;;;;;;7.88;7.07;;;;;;;-1.46;100.00;103290.56;10190344;28;20436;-72
2024/01/08 05:51:40;;;;;;;8.23;6.45;;;;;;;-1.57;100.00;103284.56;10183449;28;20085;-71
2024/01/08 05:56:37;;;;;;;7.22;6.63;;;;;;;-1.50;100.00;103290.91;10182402;28;20068;-72
2024/01/08 06:01:34;;;;;;;12.13;7.45;;;;;;;-1.46;100.00;103301.28;10170505;28;20493;-72
2024/01/08 06:06:31;;;;;;;7.82;7.10;;;;;;;-1.43;100.00;103298.28;10170324;28;20060;-70
2024/01/08 06:11:28;;;;;;;7.50;6.90;;;;;;;-1.57;100.00;103298.00;10181599;28;20061;-71
2024/01/08 06:16:24;;;;;;;7.25;6.68;;;;;;;-1.57;100.00;103306.03;10171481;28;20038;-72
2024/01/08 06:21:21;;;;;;;7.38;6.78;;;;;;;-1.41;100.00;103315.06;10184808;28;20053;-70
2024/01/08 06:26:18;;;;;;;7.75;7.05;;;;;;;-1.52;100.00;103313.56;10185109;28;20100;-72
2024/01/08 06:31:14;;;;;;;7.95;7.30;;;;;;;-1.51;100.00;103321.47;10170658;28;20046;-71
2024/01/08 06:36:11;;;;;;;7.82;7.22;;;;;;;-1.39;100.00;103323.75;10191806;28;20144;-70
2024/01/08 06:41:08;;;;;;;7.70;7.00;;;;;;;-1.50;100.00;103320.44;10185381;28;20054;-73
2024/01/08 06:46:07;;;;;;;7.80;7.13;;;;;;;-1.48;100.00;103329.16;10176807;28;20045;-71
2024/01/08 06:51:11;;;;;;;9.32;7.25;;;;;;;-1.41;100.00;103331.97;10187085;28;20034;-74
2024/01/08 07:39:07;;;;;;;9.10;6.65;;;;;;;-1.54;100.00;103396.91;8138786;27;20500;-74
2024/01/08 07:44:06;;;;;;;7.45;6.75;;;;;;;-1.55;100.00;103400.63;10014870;29;20523;-74
2024/01/08 07:49:04;;;;;;;7.88;7.00;;;;;;;-1.57;100.00;103408.00;10000789;28;20047;-73
2024/01/08 07:54:08;;;;;;;7.22;6.63;;;;;;;-1.56;100.00;103420.38;9984972;28;20047;-72
2024/01/08 07:59:08;;;;;;;8.75;6.97;;;;;;;-1.64;100.00;103428.47;9985185;28;20340;-74
2024/01/08 08:16:18;;;;;;;9.63;7.32;;;;;;;-1.64;100.00;103460.66;9974476;29;20137;-71
2024/01/08 08:21:18;;;;;;;6.50;5.90;;;;;;;-1.60;100.00;103462.00;10024826;29;20475;-71
2024/01/08 08:26:15;;;;;;;7.55;6.75;;;;;;;-1.57;100.00;103475.06;10031743;28;20057;-70
2024/01/08 08:31:15;;;;;;;7.35;6.65;;;;;;;-1.55;100.00;103474.91;10031671;29;20418;-71
2024/01/08 08:36:12;;;;;;;6.80;6.20;;;;;;;-1.33;100.00;103489.47;10030265;29;20479;-71
2024/01/08 08:41:12;;;;;;;8.13;7.32;;;;;;;-1.57;100.00;103491.19;10025476;29;20459;-72
2024/01/08 08:46:09;;;;;;;7.82;5.97;;;;;;;-1.33;100.00;103500.22;10020195;29;20055;-71
2024/01/08 08:51:05;;;;;;;12.00;6.38;;;;;;;-1.36;100.00;103508.63;9994868;29;20044;-69
2024/01/08 08:56:04;;;;;;;6.88;6.18;;;;;;;-1.53;100.00;103516.69;10027219;29;20055;-72
2024/01/08 09:01:01;;;;;;;7.43;6.10;;;;;;;-1.49;100.00;103522.53;10025401;29;20071;-71
2024/01/08 09:05:58;;;;;;;6.20;5.60;;;;;;;-1.62;100.00;103528.41;10025916;29;20083;-71
2024/01/08 09:10:54;;;;;;;9.48;6.32;;;;;;;-1.54;100.00;103536.44;10024710;29;20051;-70
2024/01/08 09:15:51;;;;;;;7.13;5.95;;;;;;;-1.60;100.00;103553.22;10012519;29;20059;-69
2024/01/08 09:20:47;;;;;;;8.07;6.38;;;;;;;-1.53;100.00;103548.03;10025234;29;20052;-71
2024/01/08 09:25:44;;;;;;;6.90;6.20;;;;;;;-1.39;100.00;103559.91;10022199;29;20076;-70
2024/01/08 09:30:41;;;;;;;6.60;5.90;;;;;;;-1.26;100.00;103560.25;10025921;29;20507;-72
2024/01/08 09:35:37;;;;;;;6.32;5.82;;;;;;;-1.49;100.00;103574.34;10020065;29;20523;-71
2024/01/08 09:40:34;;;;;;;6.80;6.20;;;;;;;-1.29;100.00;103568.66;10025229;29;20110;-71
2024/01/08 09:45:32;;;;;;;7.35;5.78;;;;;;;-1.28;100.00;103573.00;10025777;29;20055;-69
2024/01/08 09:50:29;;;;;;;7.05;5.93;;;;;;;-1.29;100.00;103576.72;10031723;29;20048;-71
2024/01/08 09:55:26;;;;;;;6.07;5.47;;;;;;;-1.43;100.00;103577.38;10027479;29;20044;-72
2024/01/08 10:00:22;;;;;;;5.80;5.30;;;;;;;-1.27;100.00;103574.72;10031133;29;20079;-72
2024/01/08 10:05:20;;;;;;;6.97;5.50;;;;;;;-1.15;100.00;103573.34;10031922;29;20044;-72
2024/01/08 10:10:19;;;;;;;6.13;5.60;;;;;;;-1.06;100.00;103577.69;10029325;29;20080;-71
2024/01/08 10:15:18;;;;;;;6.47;5.85;;;;;;;-1.07;100.00;103569.81;10029994;29;20143;-72
2024/01/08 10:20:16;;;;;;;7.20;5.82;;;;;;;-0.80;100.00;103578.50;10033223;29;20052;-73
2024/01/08 10:25:21;;;;;;;6.20;5.60;;;;;;;0.19;100.00;103569.81;10031792;29;20408;-73
2024/01/08 10:30:17;;;;;;;7.03;5.40;;;;;;;-146.18;100.00;67994.34;10032974;29;21114;-74
2024/01/08 10:35:14;;;;;;;7.13;5.88;;;;;;;-0.31;100.00;103549.59;10031669;29;20043;-73
2024/01/08 10:40:13;;;;;;;6.07;5.40;;;;;;;-0.29;100.00;103563.69;10034808;29;20448;-74
2024/01/08 10:45:10;;;;;;;6.45;5.85;;;;;;;-0.45;100.00;103563.78;10032384;29;20060;-75
2024/01/08 10:50:09;;;;;;;5.47;4.97;;;;;;;-0.49;100.00;103567.81;10007773;29;20057;-72
2024/01/08 10:55:10;;;;;;;6.25;5.65;;;;;;;-0.66;100.00;103567.03;10029604;29;20066;-74
2024/01/08 11:00:09;;;;;;;6.95;5.75;;;;;;;-0.53;100.00;103561.13;10035771;29;20048;-72
2024/01/08 11:05:10;;;;;;;7.65;5.25;;;;;;;-0.37;100.00;103571.81;10018042;28;20082;-74
2024/01/08 11:10:09;;;;;;;7.07;5.38;;;;;;;-0.50;100.00;103566.16;10022213;29;20134;-72
2024/01/08 11:15:06;;;;;;;7.50;5.70;;;;;;;-0.37;100.00;103560.19;10026555;29;20058;-72
2024/01/08 11:20:06;;;;;;;7.78;6.00;;;;;;;-0.07;100.00;103553.16;10032535;29;20107;-72
2024/01/08 11:25:05;;;;;;;6.63;5.97;;;;;;;-0.06;100.00;103546.78;10031869;28;20399;-72
2024/01/08 11:30:01;;;;;;;6.40;5.80;;;;;;;-0.28;100.00;103554.63;10028557;29;20059;-71
2024/01/08 11:35:07;;;;;;;6.00;5.47;;;;;;;-0.34;100.00;103552.63;10033778;29;20566;-73
2024/01/08 11:40:13;;;;;;;6.57;5.97;;;;;;;-0.22;100.00;103545.84;10029218;29;20951;-72
2024/01/08 11:45:11;;;;;;;6.28;5.78;;;;;;;-0.64;100.00;103546.22;10029952;29;20142;-73
2024/01/08 11:50:08;;;;;;;6.15;5.53;;;;;;;-0.69;100.00;103546.72;10034735;29;20059;-72
2024/01/08 11:55:06;;;;;;;6.85;5.65;;;;;;;-0.55;100.00;103552.41;10020995;28;20051;-73
2024/01/08 12:00:22;;;;;;;10.88;6.10;;;;;;;-0.11;100.00;103549.16;10014057;29;20062;-73
2024/01/08 12:05:19;;;;;;;8.80;5.90;;;;;;;0.16;100.00;103551.34;10035356;29;20056;-72
2024/01/08 12:10:16;;;;;;;6.40;5.80;;;;;;;0.24;100.00;86209.69;10029760;29;20054;-72
2024/01/08 12:15:12;;;;;;;7.88;6.15;;;;;;;0.64;100.00;103559.22;10025987;29;20058;-74
2024/01/08 12:20:09;;;;;;;6.57;5.97;;;;;;;0.13;100.00;103554.38;10026327;29;20043;-72
2024/01/08 12:25:09;;;;;;;6.72;6.13;;;;;;;0.37;100.00;103563.28;10031470;28;20055;-73
2024/01/08 12:30:07;;;;;;;5.90;5.40;;;;;;;0.15;100.00;103557.72;10028366;29;20058;-72
2024/01/08 12:35:08;;;;;;;7.00;6.20;;;;;;;0.41;100.00;103557.38;10026236;29;20052;-74
2024/01/08 12:40:10;;;;;;;7.35;6.60;;;;;;;0.28;100.00;103561.69;10029269;29;20079;-73
2024/01/08 12:45:07;;;;;;;12.05;6.68;;;;;;;0.40;100.00;103568.34;10032137;28;20578;-72
2024/01/08 12:50:04;;;;;;;6.55;5.95;;;;;;;0.32;100.00;103571.91;10031062;29;20408;-73
2024/01/08 12:55:01;;;;;;;6.75;6.00;;;;;;;0.07;100.00;103557.81;10027455;29;20066;-72
2024/01/08 12:59:58;;;;;;;7.05;6.10;;;;;;;0.16;100.00;103561.25;10030241;29;20396;-73
2024/01/08 13:04:54;;;;;;;6.15;5.65;;;;;;;0.28;100.00;103575.13;10022248;29;20058;-73
2024/01/08 13:09:51;;;;;;;6.93;6.32;;;;;;;0.43;100.00;103581.44;10040527;28;20051;-72
2024/01/08 13:14:47;;;;;;;8.50;7.80;;;;;;;0.12;100.00;103582.31;10013730;28;20040;-73
2024/01/08 13:19:44;;;;;;;7.18;6.55;;;;;;;0.07;100.00;103584.72;10023571;29;20051;-71
2024/01/08 13:24:41;;;;;;;6.35;5.80;;;;;;;0.02;100.00;103592.44;10028913;29;20061;-73
2024/01/08 13:29:38;;;;;;;6.43;5.93;;;;;;;-0.04;100.00;103593.19;10036219;29;20052;-71
2024/01/08 13:34:35;;;;;;;8.07;5.97;;;;;;;0.10;100.00;103589.72;10048401;28;20043;-72
2024/01/08 13:39:31;;;;;;;9.68;6.88;;;;;;;-0.24;100.00;103587.38;10036249;29;20043;-71
2024/01/08 13:44:28;;;;;;;9.02;6.32;;;;;;;-0.20;100.00;103598.63;10053964;28;20466;-73
2024/01/08 13:49:24;;;;;;;7.05;6.35;;;;;;;-0.07;100.00;103599.75;10025833;29;20677;-73
2024/01/08 13:54:21;;;;;;;8.82;6.82;;;;;;;-0.27;100.00;103601.19;10038464;29;20055;-73
2024/01/08 13:59:17;;;;;;;6.78;6.18;;;;;;;-0.49;100.00;103605.44;10047002;29;20051;-73
2024/01/08 14:04:14;;;;;;;5.97;5.47;;;;;;;-0.59;100.00;103610.19;10041800;28;20043;-70
2024/01/08 14:09:12;;;;;;;8.63;6.22;;;;;;;-0.60;100.00;103614.72;10027771;29;20058;-70
2024/01/08 14:14:09;;;;;;;7.22;5.78;;;;;;;-0.56;100.00;103616.03;10042991;29;20055;-72
2024/01/08 14:19:06;;;;;;;6.53;6.00;;;;;;;-0.98;100.00;103621.66;10051625;29;20134;-72
2024/01/08 14:24:02;;;;;;;6.78;6.18;;;;;;;-1.07;100.00;103619.00;10038538;29;20075;-71
2024/01/08 14:28:59;;;;;;;7.10;6.32;;;;;;;-1.08;100.00;103622.69;10042357;29;20131;-73
2024/01/08 14:33:55;;;;;;;8.20;6.68;;;;;;;-1.45;100.00;103619.66;10028949;29;20062;-71
2024/01/08 14:38:52;;;;;;;9.02;6.70;;;;;;;-1.32;100.00;103625.38;10043816;29;20052;-73
2024/01/08 14:43:49;;;;;;;6.72;6.13;;;;;;;-1.34;100.00;103627.38;10029227;28;20043;-72
2024/01/08 14:48:45;;;;;;;7.72;7.05;;;;;;;-1.44;100.00;103632.06;10034791;29;20047;-73
2024/01/08 14:53:42;;;;;;;9.27;6.93;;;;;;;-1.51;100.00;103632.75;10034017;29;20135;-72
2024/01/08 14:58:39;;;;;;;7.32;6.63;;;;;;;-1.62;100.00;103641.09;10043875;29;20107;-71
2024/01/08 15:03:36;;;;;;;7.85;7.07;;;;;;;-1.66;100.00;103639.75;10041458;29;20083;-71
2024/01/08 15:08:32;;;;;;;9.40;6.57;;;;;;;-1.83;100.00;103638.00;10033709;29;20090;-71
2024/01/08 15:13:29;;;;;;;7.30;6.78;;;;;;;-1.78;100.00;103651.78;10032020;29;20103;-69
2024/01/08 15:18:25;;;;;;;8.38;6.95;;;;;;;-1.99;100.00;103655.75;10039351;29;20119;-70
2024/01/08 15:23:23;;;;;;;7.13;6.45;;;;;;;-1.86;100.00;103659.78;10036391;29;20050;-71
2024/01/08 15:28:21;;;;;;;8.25;6.90;;;;;;;-1.83;100.00;103654.09;10043326;29;20147;-70
2024/01/08 15:33:17;;;;;;;8.68;7.50;;;;;;;-1.96;100.00;103666.13;10034410;29;20487;-71
2024/01/08 15:38:14;;;;;;;7.57;6.85;;;;;;;-1.96;100.00;103660.78;10040999;28;20076;-70
2024/01/08 15:43:10;;;;;;;7.85;7.05;;;;;;;-2.00;100.00;103669.31;10026658;29;20040;-68
2024/01/08 15:48:07;;;;;;;10.48;8.00;;;;;;;-2.04;100.00;103676.84;10022553;28;20047;-70
2024/01/08 15:53:04;;;;;;;8.30;7.50;;;;;;;-2.26;100.00;103686.28;10027554;29;20099;-69
2024/01/08 15:58:04;;;;;;;8.93;7.90;;;;;;;-2.17;100.00;103684.47;10033710;28;20131;-70
2024/01/08 16:03:01;;;;;;;9.10;8.00;;;;;;;-2.24;100.00;103688.81;10031659;29;20514;-70
2024/01/08 16:07:58;;;;;;;8.90;8.10;;;;;;;-2.37;100.00;103690.09;10023436;29;20115;-70
2024/01/08 16:12:57;;;;;;;11.35;7.95;;;;;;;-2.50;100.00;103689.66;10040202;29;20051;-69
2024/01/08 16:17:53;;;;;;;10.10;8.65;;;;;;;-2.44;100.00;103689.00;10023652;29;20066;-70
2024/01/08 16:22:50;;;;;;;10.07;8.25;;;;;;;-2.60;100.00;103684.41;10032855;29;20044;-71
2024/01/08 16:27:46;;;;;;;9.88;8.93;;;;;;;-2.61;100.00;103695.25;10022193;29;20050;-70
2024/01/08 16:32:43;;;;;;;9.77;8.27;;;;;;;-2.76;100.00;103695.84;10026185;29;20035;-67
2024/01/08 16:37:41;;;;;;;9.50;8.50;;;;;;;-2.75;100.00;103702.88;10034731;28;20062;-70
2024/01/08 16:42:38;;;;;;;11.75;9.00;;;;;;;-2.73;100.00;103701.88;10016439;29;20099;-70
2024/01/08 16:47:37;;;;;;;11.38;8.63;;;;;;;-2.81;100.00;103714.22;10038664;29;20441;-67
2024/01/08 16:52:47;;;;;;;9.02;8.27;;;;;;;-2.84;100.00;103714.50;10039611;29;20504;-70
2024/01/08 16:57:43;;;;;;;9.82;8.93;;;;;;;-3.00;100.00;103714.38;10046113;29;20054;-70
2024/01/08 17:02:40;;;;;;;9.73;8.82;;;;;;;-3.00;100.00;103725.06;10030271;29;20098;-69
2024/01/08 17:07:36;;;;;;;9.85;8.82;;;;;;;-2.95;100.00;103728.13;10037682;28;20074;-70
2024/01/08 17:12:33;;;;;;;9.32;8.52;;;;;;;-3.09;100.00;103731.34;10030758;29;21390;-70
2024/01/08 17:17:29;;;;;;;9.77;8.77;;;;;;;-3.02;100.00;103727.06;10026408;29;20075;-69
2024/01/08 17:22:26;;;;;;;9.38;8.57;;;;;;;-3.05;100.00;103738.91;10025730;29;20055;-70
2024/01/08 17:27:23;;;;;;;9.07;8.25;;;;;;;-3.03;100.00;103741.44;10027521;29;20044;-69
2024/01/08 17:32:19;;;;;;;9.63;8.82;;;;;;;-3.09;100.00;103747.41;10017398;29;20044;-70
2024/01/08 17:37:16;;;;;;;10.07;9.18;;;;;;;-3.20;100.00;103751.16;10036879;28;20044;-68
2024/01/08 17:42:13;;;;;;;10.48;9.48;;;;;;;-3.25;100.00;103750.75;10012685;29;20047;-69
2024/01/08 17:47:10;;;;;;;9.90;9.00;;;;;;;-3.28;100.00;103749.22;10019470;29;20059;-70
2024/01/08 17:52:06;;;;;;;10.55;9.57;;;;;;;-3.27;100.00;103755.41;10031888;29;20044;-69
2024/01/08 17:57:03;;;;;;;10.60;9.52;;;;;;;-3.23;100.00;103762.97;10039974;28;20573;-71
2024/01/08 18:01:59;;;;;;;10.60;9.25;;;;;;;-3.20;100.00;103770.72;10024952;29;20657;-70
2024/01/08 18:06:56;;;;;;;9.57;8.88;;;;;;;-3.25;100.00;103774.84;10035490;29;20120;-69
2024/01/08 18:11:54;;;;;;;10.00;9.10;;;;;;;-3.30;100.00;103777.97;10020613;29;20066;-70
2024/01/08 18:16:52;;;;;;;11.02;8.90;;;;;;;-3.37;100.00;103782.22;10036013;29;20055;-70
2024/01/08 18:21:48;;;;;;;10.15;9.20;;;;;;;-3.35;100.00;103785.59;10026490;29;20047;-70
2024/01/08 18:26:45;;;;;;;10.38;9.48;;;;;;;-3.44;100.00;103786.50;10009332;29;20099;-69
2024/01/08 18:31:42;;;;;;;10.43;9.38;;;;;;;-3.40;100.00;103787.91;10025715;29;20082;-70
2024/01/08 18:36:39;;;;;;;9.63;8.60;;;;;;;-3.42;100.00;103784.53;10011787;29;20059;-70
2024/01/08 18:41:35;;;;;;;9.30;8.60;;;;;;;-3.40;100.00;103785.22;10024453;29;20044;-69
2024/01/08 18:46:32;;;;;;;9.27;8.57;;;;;;;-3.49;100.00;103794.97;10035650;28;20538;-70
2024/01/08 18:51:28;;;;;;;10.43;9.00;;;;;;;-3.43;100.00;103804.25;10031179;29;20039;-69
2024/01/08 18:56:25;;;;;;;12.32;8.93;;;;;;;-3.41;100.00;103804.94;10036144;29;20502;-71
2024/01/08 19:01:26;;;;;;;9.32;8.52;;;;;;;-3.51;100.00;103812.16;10035567;29;20050;-71
2024/01/08 19:06:25;;;;;;;9.43;8.57;;;;;;;-3.56;100.00;103825.16;10035574;29;20075;-71
2024/01/08 19:11:22;;;;;;;9.35;8.60;;;;;;;-3.56;100.00;103825.16;10043285;29;20070;-70
2024/01/08 19:16:19;;;;;;;9.00;8.30;;;;;;;-3.51;100.00;103828.22;10044740;29;20071;-71
2024/01/08 19:21:16;;;;;;;9.40;8.60;;;;;;;-3.59;100.00;103831.63;10041000;29;20048;-70
2024/01/08 19:26:12;;;;;;;10.43;7.85;;;;;;;-3.53;100.00;103835.53;10027552;28;20058;-71
2024/01/08 19:31:11;;;;;;;10.02;8.98;;;;;;;-3.61;100.00;103837.13;10025160;29;20059;-71
2024/01/08 19:36:08;;;;;;;11.25;8.75;;;;;;;-3.56;100.00;103846.53;10013009;28;20047;-71
2024/01/08 19:41:04;;;;;;;9.50;8.70;;;;;;;-3.61;100.00;103845.13;10036776;29;20051;-70
2024/01/08 19:46:01;;;;;;;9.15;8.35;;;;;;;-3.61;100.00;103855.84;10040174;29;20051;-71
2024/01/08 19:50:58;;;;;;;9.23;8.23;;;;;;;-3.60;100.00;103852.19;10036662;29;20055;-70
2024/01/08 19:55:55;;;;;;;11.95;8.93;;;;;;;-3.66;100.00;103863.47;10023041;29;20044;-70
2024/01/08 20:00:52;;;;;;;9.18;8.38;;;;;;;-3.66;100.00;103851.94;10030674;29;20431;-70
2024/01/08 20:05:48;;;;;;;8.73;8.13;;;;;;;-3.68;100.00;103860.09;10027387;29;20427;-68
2024/01/08 20:10:45;;;;;;;9.38;8.43;;;;;;;-3.76;100.00;103860.00;10043122;29;20138;-70
2024/01/08 20:15:41;;;;;;;9.32;8.63;;;;;;;-3.73;100.00;103856.19;10033914;29;20086;-71
2024/01/08 20:20:40;;;;;;;8.93;8.23;;;;;;;-3.78;100.00;103869.97;10026156;29;20503;-71
2024/01/08 20:25:37;;;;;;;9.88;8.35;;;;;;;-3.81;100.00;103870.25;10030035;29;20274;-70
2024/01/08 20:30:33;;;;;;;8.95;8.25;;;;;;;-3.80;100.00;103877.31;10034505;29;20051;-71
2024/01/08 20:35:30;;;;;;;9.43;8.63;;;;;;;-3.81;100.00;103875.59;10027971;29;20426;-70
2024/01/08 20:40:26;;;;;;;9.52;8.65;;;;;;;-3.97;100.00;103886.88;10036159;28;20051;-74
2024/01/08 20:45:23;;;;;;;9.30;8.40;;;;;;;-3.92;100.00;103878.44;10040424;29;20052;-70
2024/01/08 20:50:19;;;;;;;9.13;8.40;;;;;;;-3.87;100.00;103881.53;10038426;29;20773;-70
2024/01/08 20:55:18;;;;;;;9.45;8.57;;;;;;;-3.90;100.00;103881.81;10039972;28;20044;-69
2024/01/08 21:00:16;;;;;;;9.90;9.00;;;;;;;-3.99;100.00;103885.34;10042819;29;20050;-69
2024/01/08 21:05:13;;;;;;;9.20;8.55;;;;;;;-3.97;100.00;103884.22;10038187;28;20051;-70
2024/01/08 21:10:10;;;;;;;10.43;8.55;;;;;;;-3.98;100.00;103876.34;10037342;29;20047;-70
2024/01/08 21:15:07;;;;;;;9.32;8.55;;;;;;;-4.02;100.00;103879.28;10031071;29;20093;-68
2024/01/08 21:20:04;;;;;;;9.35;8.32;;;;;;;-4.05;100.00;103868.91;10032348;29;20048;-67
2024/01/08 21:25:00;;;;;;;9.27;8.38;;;;;;;-4.09;100.00;103872.84;10035628;29;20415;-67
2024/01/08 21:29:57;;;;;;;10.10;9.05;;;;;;;-4.11;100.00;103872.13;10040168;29;20504;-69
2024/01/08 21:34:54;;;;;;;8.63;8.02;;;;;;;-4.20;100.00;103870.34;10038639;28;20044;-67
2024/01/08 21:39:50;;;;;;;9.65;8.80;;;;;;;-4.24;100.00;103880.44;10033863;29;20058;-68
2024/01/08 21:44:47;;;;;;;9.90;9.10;;;;;;;-4.23;100.00;103881.28;10027681;29;20035;-68
2024/01/08 21:49:43;;;;;;;10.23;9.23;;;;;;;-4.35;100.00;103880.59;10037813;29;20480;-68
2024/01/08 21:54:40;;;;;;;10.02;9.23;;;;;;;-4.29;100.00;103884.53;10041817;29;20050;-68
2024/01/08 21:59:36;;;;;;;9.80;9.02;;;;;;;-4.35;100.00;103891.28;10037416;29;20423;-67
2024/01/08 22:04:33;;;;;;;8.93;8.25;;;;;;;-4.34;100.00;103881.44;10040176;29;20047;-68
2024/01/08 22:09:29;;;;;;;8.98;8.30;;;;;;;-4.40;100.00;103890.03;10042172;29;20055;-69
2024/01/08 22:14:26;;;;;;;9.52;8.60;;;;;;;-4.41;100.00;103885.66;10042626;29;20040;-69
2024/01/08 22:19:22;;;;;;;9.07;8.48;;;;;;;-4.49;100.00;103891.69;10038481;29;20139;-68
2024/01/08 22:24:19;;;;;;;9.68;8.95;;;;;;;-4.53;100.00;103898.28;10024008;29;20062;-70
2024/01/08 22:29:16;;;;;;;9.10;8.40;;;;;;;-4.59;100.00;103891.69;10053832;29;20070;-68
2024/01/08 22:34:12;;;;;;;9.82;9.02;;;;;;;-4.58;100.00;103888.03;10043753;29;20050;-68
2024/01/08 22:39:09;;;;;;;9.98;8.95;;;;;;;-4.63;100.00;103884.94;10047744;29;20047;-68
2024/01/08 22:44:06;;;;;;;9.50;8.48;;;;;;;-4.74;100.00;103890.41;10043896;29;20485;-68
2024/01/08 22:49:14;;;;;;;10.25;9.30;;;;;;;-4.78;100.00;103886.31;10035663;29;20051;-69
2024/01/08 22:54:11;;;;;;;9.43;8.80;;;;;;;-4.87;100.00;103883.50;10044209;28;20408;-68
2024/01/08 22:59:07;;;;;;;10.60;9.48;;;;;;;-4.91;100.00;103886.56;10044474;29;20063;-69
2024/01/08 23:04:04;;;;;;;10.02;9.00;;;;;;;-4.97;100.00;103890.63;10035455;29;20036;-69
2024/01/08 23:09:00;;;;;;;10.60;8.73;;;;;;;-5.02;100.00;103895.53;10037523;29;20051;-68
2024/01/08 23:13:57;;;;;;;9.35;8.52;;;;;;;-5.08;100.00;103898.75;10026932;29;20051;-68
2024/01/08 23:18:53;;;;;;;10.25;9.35;;;;;;;-5.11;100.00;103899.00;10035185;29;20063;-68
2024/01/08 23:23:50;;;;;;;10.63;9.50;;;;;;;-5.18;100.00;103900.53;10040477;29;20047;-70
2024/01/08 23:28:47;;;;;;;9.40;8.73;;;;;;;-5.19;100.00;103898.84;10043952;29;20163;-69
2024/01/08 23:33:43;;;;;;;9.90;9.10;;;;;;;-5.26;100.00;103903.03;10036347;29;20405;-67
2024/01/08 23:38:40;;;;;;;11.27;9.65;;;;;;;-5.32;100.00;103909.75;10040825;29;20094;-69